Time;durP1;ratioP1;P1;durP2;ratioP2;P2;SDS_P1;SDS_P2;PMS_P1;PMS_P2;Temp;Humidity;BMP_temperature;BMP_pressure;BME280_temperature;BME280_humidity;BME280_pressure;Samples;Min_cycle;Max_cycle;Signal;HPM_P1;HPM_P2
2022/01/04 00:01:57;;;;;;;44.95;26.45;;;;;;;;;;5031567;28;20087;-70
2022/01/04 00:04:24;;;;;;;47.65;26.58;;;;;;;;;;4995403;28;20059;-69
2022/01/04 00:06:50;;;;;;;40.03;24.10;;;;;;;;;;5012611;28;20056;-74
2022/01/04 00:09:16;;;;;;;35.80;21.30;;;;;;;;;;5012897;28;20459;-72
2022/01/04 00:14:18;;;;;;;31.60;19.52;;;;;;;;;;5015544;28;20166;-71
2022/01/04 00:16:45;;;;;;;28.60;17.73;;;;;;;;;;5014973;28;20064;-70
2022/01/04 00:19:12;;;;;;;29.75;16.42;;;;;;;;;;5031431;28;20091;-71
2022/01/04 00:21:38;;;;;;;30.98;16.02;;;;;;;;;;5027821;28;21064;-69
2022/01/04 00:24:06;;;;;;;27.67;14.35;;;;;;;;;;5016042;28;20037;-69
2022/01/04 00:26:32;;;;;;;22.15;13.50;;;;;;;;;;5032024;28;20037;-70
2022/01/04 00:28:58;;;;;;;18.67;11.85;;;;;;;;;;5015449;28;20060;-70
2022/01/04 00:31:24;;;;;;;20.95;11.05;;;;;;;;;;5031471;28;20059;-71
2022/01/04 00:33:51;;;;;;;16.25;9.43;;;;;;;;;;5035357;28;20052;-72
2022/01/04 00:36:18;;;;;;;16.33;9.48;;;;;;;;;;5039371;28;20056;-71
2022/01/04 00:38:44;;;;;;;11.55;8.25;;;;;;;;;;5040176;28;20045;-70
2022/01/04 00:41:10;;;;;;;15.75;7.88;;;;;;;;;;4996517;28;20049;-69
2022/01/04 00:43:36;;;;;;;13.00;7.25;;;;;;;;;;5036788;28;20422;-69
2022/01/04 00:46:02;;;;;;;11.05;6.78;;;;;;;;;;5017483;28;20144;-73
2022/01/04 00:50:56;;;;;;;13.30;5.93;;;;;;;;;;5031810;28;20372;-70
2022/01/04 00:53:22;;;;;;;9.15;5.93;;;;;;;;;;5018204;28;20159;-71
2022/01/04 00:55:48;;;;;;;10.85;5.78;;;;;;;;;;5004074;28;20172;-70
2022/01/04 00:58:14;;;;;;;11.48;5.10;;;;;;;;;;5033878;28;20457;-73
2022/01/04 01:00:40;;;;;;;6.97;4.28;;;;;;;;;;5029467;28;20152;-69
2022/01/04 01:03:07;;;;;;;7.57;4.47;;;;;;;;;;5019144;28;20057;-68
2022/01/04 01:05:33;;;;;;;9.48;4.70;;;;;;;;;;5017788;28;20044;-70
2022/01/04 01:08:01;;;;;;;7.38;3.50;;;;;;;;;;5023527;28;20052;-69
2022/01/04 01:10:46;;;;;;;7.53;3.33;;;;;;;;;;5033025;28;20087;-70
2022/01/04 01:13:14;;;;;;;6.82;3.42;;;;;;;;;;5035042;28;20076;-70
2022/01/04 01:15:43;;;;;;;7.53;3.50;;;;;;;;;;5033394;28;20051;-69
2022/01/04 01:18:09;;;;;;;8.32;3.25;;;;;;;;;;5035287;28;20109;-69
2022/01/04 01:20:36;;;;;;;4.72;3.13;;;;;;;;;;5029187;28;20045;-70
2022/01/04 01:23:03;;;;;;;7.47;3.50;;;;;;;;;;5035328;28;20068;-68
2022/01/04 01:25:48;;;;;;;5.43;3.05;;;;;;;;;;5035087;28;20503;-68
2022/01/04 01:28:15;;;;;;;5.32;2.97;;;;;;;;;;5033049;28;20057;-69
2022/01/04 01:30:43;;;;;;;5.75;3.17;;;;;;;;;;5027592;28;20061;-69
2022/01/04 01:33:10;;;;;;;5.43;3.08;;;;;;;;;;4998508;28;20182;-71
2022/01/04 01:35:38;;;;;;;5.55;2.83;;;;;;;;;;5032061;28;20040;-73
2022/01/04 01:38:05;;;;;;;5.47;3.00;;;;;;;;;;5034429;28;22131;-69
2022/01/04 01:40:32;;;;;;;5.65;2.53;;;;;;;;;;5028065;28;20069;-69
2022/01/04 01:42:58;;;;;;;5.95;3.10;;;;;;;;;;5016250;28;20102;-72
2022/01/04 01:45:25;;;;;;;7.53;2.92;;;;;;;;;;5035603;28;20056;-69
2022/01/04 01:47:52;;;;;;;6.70;2.78;;;;;;;;;;5039733;28;20168;-70
2022/01/04 01:50:19;;;;;;;5.28;2.78;;;;;;;;;;4997279;28;21343;-68
2022/01/04 01:52:49;;;;;;;6.95;3.10;;;;;;;;;;5031254;28;20163;-70
2022/01/04 01:55:18;;;;;;;7.70;2.88;;;;;;;;;;5016529;28;20136;-70
2022/01/04 01:57:45;;;;;;;4.40;2.97;;;;;;;;;;5014413;28;20387;-69
2022/01/04 02:00:14;;;;;;;8.07;3.25;;;;;;;;;;5008188;28;20053;-70
2022/01/04 02:02:41;;;;;;;6.65;2.85;;;;;;;;;;5034564;28;20079;-72
2022/01/04 02:05:08;;;;;;;5.20;3.15;;;;;;;;;;5036543;28;20045;-72
2022/01/04 02:07:39;;;;;;;7.00;3.20;;;;;;;;;;5013999;28;20080;-70
2022/01/04 02:10:08;;;;;;;4.85;3.00;;;;;;;;;;5028988;28;20105;-71
2022/01/04 02:12:35;;;;;;;5.55;3.40;;;;;;;;;;5030314;28;20068;-70
2022/01/04 02:15:04;;;;;;;4.82;2.60;;;;;;;;;;5031999;28;20426;-69
2022/01/04 02:17:30;;;;;;;4.35;2.92;;;;;;;;;;5032893;28;20490;-72
2022/01/04 02:19:57;;;;;;;5.65;3.10;;;;;;;;;;5015678;28;20049;-71
2022/01/04 02:22:25;;;;;;;5.50;3.63;;;;;;;;;;5035935;28;20052;-71
2022/01/04 02:24:51;;;;;;;5.60;2.92;;;;;;;;;;5017509;28;20044;-72
2022/01/04 02:27:18;;;;;;;5.28;3.05;;;;;;;;;;5035280;28;20057;-70
2022/01/04 02:29:45;;;;;;;9.15;3.35;;;;;;;;;;5011331;28;20090;-69
2022/01/04 02:32:12;;;;;;;5.50;3.25;;;;;;;;;;5032717;28;20056;-70
2022/01/04 02:34:39;;;;;;;9.10;3.65;;;;;;;;;;5015601;28;20502;-70
2022/01/04 02:37:07;;;;;;;6.57;3.50;;;;;;;;;;5014667;28;20097;-70
2022/01/04 02:39:38;;;;;;;6.15;3.40;;;;;;;;;;5026854;28;20841;-69
2022/01/04 02:42:05;;;;;;;9.23;3.35;;;;;;;;;;5035767;28;20511;-70
2022/01/04 02:44:32;;;;;;;6.35;3.50;;;;;;;;;;5016494;28;20174;-69
2022/01/04 02:46:59;;;;;;;6.05;2.97;;;;;;;;;;5016759;28;20040;-69
2022/01/04 02:49:25;;;;;;;5.25;3.13;;;;;;;;;;5029322;28;20414;-70
2022/01/04 02:51:52;;;;;;;5.22;2.78;;;;;;;;;;5033388;28;20048;-70
2022/01/04 02:54:18;;;;;;;6.72;2.90;;;;;;;;;;5015041;28;20052;-68
2022/01/04 02:56:44;;;;;;;5.15;3.17;;;;;;;;;;5033854;28;20103;-70
2022/01/04 02:59:11;;;;;;;6.05;2.92;;;;;;;;;;5010978;28;20060;-72
2022/01/04 03:01:37;;;;;;;6.78;3.33;;;;;;;;;;5010330;28;20061;-70
2022/01/04 03:04:03;;;;;;;6.45;3.20;;;;;;;;;;5012963;28;20060;-70
2022/01/04 03:06:29;;;;;;;4.78;3.13;;;;;;;;;;5017211;28;20053;-70
2022/01/04 03:08:55;;;;;;;10.85;3.50;;;;;;;;;;5001194;28;20122;-70
2022/01/04 03:11:22;;;;;;;5.60;3.60;;;;;;;;;;5010776;28;20067;-70
2022/01/04 03:13:48;;;;;;;8.82;3.33;;;;;;;;;;5032744;28;20045;-70
2022/01/04 03:16:14;;;;;;;8.80;3.72;;;;;;;;;;5012936;28;20083;-69
2022/01/04 03:19:01;;;;;;;7.20;3.50;;;;;;;;;;5015372;28;20121;-68
2022/01/04 03:21:26;;;;;;;8.50;3.38;;;;;;;;;;5011843;28;20471;-69
2022/01/04 03:23:53;;;;;;;8.18;3.22;;;;;;;;;;5015503;28;20061;-69
2022/01/04 03:26:19;;;;;;;4.78;2.90;;;;;;;;;;5031988;28;20053;-69
2022/01/04 03:28:45;;;;;;;6.93;3.50;;;;;;;;;;5034056;28;20525;-69
2022/01/04 03:31:12;;;;;;;4.70;3.17;;;;;;;;;;5009105;28;20061;-69
2022/01/04 03:33:38;;;;;;;4.60;2.92;;;;;;;;;;5014736;28;20605;-70
2022/01/04 03:36:05;;;;;;;5.22;3.67;;;;;;;;;;5015770;28;20045;-69
2022/01/04 03:38:31;;;;;;;5.22;3.42;;;;;;;;;;5033481;28;20036;-70
2022/01/04 03:40:58;;;;;;;6.15;3.80;;;;;;;;;;5023440;28;20056;-71
2022/01/04 03:43:25;;;;;;;5.45;3.80;;;;;;;;;;5014576;28;21065;-70
2022/01/04 03:45:51;;;;;;;7.00;3.78;;;;;;;;;;5030982;28;20132;-70
2022/01/04 03:48:18;;;;;;;9.27;3.70;;;;;;;;;;5031130;28;20159;-70
2022/01/04 03:50:44;;;;;;;6.45;3.95;;;;;;;;;;5028838;28;20476;-68
2022/01/04 03:53:11;;;;;;;6.85;3.72;;;;;;;;;;5014148;28;20045;-69
2022/01/04 03:55:37;;;;;;;5.53;3.60;;;;;;;;;;5032452;28;20064;-70
2022/01/04 03:58:03;;;;;;;6.90;3.60;;;;;;;;;;5000554;28;20398;-70
2022/01/04 04:00:29;;;;;;;8.40;3.40;;;;;;;;;;5025208;28;20051;-70
2022/01/04 04:02:56;;;;;;;6.25;3.55;;;;;;;;;;5012261;28;20702;-69
2022/01/04 04:05:22;;;;;;;6.43;3.72;;;;;;;;;;5018413;28;20056;-69
2022/01/04 04:07:48;;;;;;;7.68;3.88;;;;;;;;;;5012891;28;20129;-69
2022/01/04 04:10:14;;;;;;;6.10;3.80;;;;;;;;;;5026586;28;20053;-69
2022/01/04 04:12:41;;;;;;;12.00;3.90;;;;;;;;;;5031652;28;20049;-71
2022/01/04 04:15:09;;;;;;;7.63;3.85;;;;;;;;;;5013444;28;20053;-69
2022/01/04 04:17:35;;;;;;;6.30;3.72;;;;;;;;;;4998926;28;20058;-69
2022/01/04 04:20:04;;;;;;;4.43;3.33;;;;;;;;;;5026978;28;20045;-70
2022/01/04 04:22:31;;;;;;;8.85;4.13;;;;;;;;;;5011722;28;20498;-69
2022/01/04 04:24:58;;;;;;;9.07;4.35;;;;;;;;;;5016449;28;20581;-69
2022/01/04 04:27:24;;;;;;;9.48;4.22;;;;;;;;;;5038560;28;20049;-72
2022/01/04 04:29:51;;;;;;;7.30;3.90;;;;;;;;;;5029018;28;21172;-69
2022/01/04 04:32:17;;;;;;;6.93;4.03;;;;;;;;;;5016654;28;20162;-70
2022/01/04 04:34:44;;;;;;;9.63;4.25;;;;;;;;;;5013324;28;20362;-69
2022/01/04 04:37:10;;;;;;;7.32;3.90;;;;;;;;;;5031178;28;20508;-69
2022/01/04 04:39:36;;;;;;;8.07;3.70;;;;;;;;;;5026281;28;20057;-72
2022/01/04 04:42:04;;;;;;;9.93;3.95;;;;;;;;;;5030472;28;20080;-69
2022/01/04 04:44:30;;;;;;;8.82;4.13;;;;;;;;;;5004820;28;20098;-70
2022/01/04 04:46:57;;;;;;;6.32;4.50;;;;;;;;;;5015767;28;20509;-70
2022/01/04 04:49:23;;;;;;;5.90;3.60;;;;;;;;;;5029961;28;20943;-69
2022/01/04 04:51:50;;;;;;;9.85;4.97;;;;;;;;;;5028882;28;20116;-70
2022/01/04 04:54:16;;;;;;;7.35;4.25;;;;;;;;;;5014708;28;20391;-69
2022/01/04 04:56:43;;;;;;;10.50;4.45;;;;;;;;;;5014264;28;20376;-71
2022/01/04 04:59:09;;;;;;;9.25;4.30;;;;;;;;;;5031482;28;20049;-71
2022/01/04 05:01:36;;;;;;;7.32;4.13;;;;;;;;;;5022056;28;20454;-70
2022/01/04 05:04:03;;;;;;;7.45;4.30;;;;;;;;;;5031970;28;20058;-71
2022/01/04 05:06:29;;;;;;;7.88;4.30;;;;;;;;;;5013144;28;20048;-70
2022/01/04 05:08:55;;;;;;;7.97;4.97;;;;;;;;;;5013227;28;20167;-72
2022/01/04 05:11:23;;;;;;;7.55;4.18;;;;;;;;;;5025816;28;20041;-70
2022/01/04 05:13:49;;;;;;;7.55;4.25;;;;;;;;;;5033484;28;20155;-71
2022/01/04 05:16:15;;;;;;;6.45;4.28;;;;;;;;;;5011694;28;20693;-69
2022/01/04 05:18:41;;;;;;;8.65;4.80;;;;;;;;;;5034389;28;20070;-69
2022/01/04 05:21:08;;;;;;;7.13;4.72;;;;;;;;;;5011484;28;20049;-70
2022/01/04 05:23:34;;;;;;;7.88;4.00;;;;;;;;;;5035974;28;20056;-71
2022/01/04 05:26:00;;;;;;;6.85;4.13;;;;;;;;;;5014963;28;20163;-72
2022/01/04 05:28:27;;;;;;;8.88;4.57;;;;;;;;;;5035873;28;20538;-72
2022/01/04 05:30:53;;;;;;;11.45;4.32;;;;;;;;;;5011910;28;20060;-74
2022/01/04 05:33:19;;;;;;;10.63;4.60;;;;;;;;;;5036900;28;20172;-70
2022/01/04 05:35:48;;;;;;;7.18;4.45;;;;;;;;;;5032932;28;20128;-71
2022/01/04 05:38:16;;;;;;;8.90;4.93;;;;;;;;;;5017555;28;20076;-72
2022/01/04 05:40:42;;;;;;;8.85;4.72;;;;;;;;;;5025554;28;20144;-71
2022/01/04 05:43:09;;;;;;;7.80;4.70;;;;;;;;;;5029879;28;20148;-71
2022/01/04 05:45:35;;;;;;;9.35;5.05;;;;;;;;;;5033610;28;21363;-69
2022/01/04 05:48:01;;;;;;;7.38;4.20;;;;;;;;;;5035500;28;20425;-71
2022/01/04 05:50:29;;;;;;;7.13;4.25;;;;;;;;;;5009858;28;20122;-74
2022/01/04 05:52:55;;;;;;;9.48;4.90;;;;;;;;;;5018525;28;21149;-72
2022/01/04 05:55:21;;;;;;;14.20;4.57;;;;;;;;;;5036986;28;20094;-71
2022/01/04 05:57:48;;;;;;;8.85;4.30;;;;;;;;;;5017659;28;20331;-72
2022/01/04 06:00:14;;;;;;;7.47;4.00;;;;;;;;;;5026398;28;20561;-72
2022/01/04 06:02:41;;;;;;;8.00;3.60;;;;;;;;;;5032480;28;20068;-71
2022/01/04 06:05:08;;;;;;;10.85;3.72;;;;;;;;;;5035891;28;20045;-71
2022/01/04 06:07:35;;;;;;;6.90;3.70;;;;;;;;;;5015761;28;20045;-71
2022/01/04 06:10:07;;;;;;;7.05;3.65;;;;;;;;;;5029807;28;20125;-71
2022/01/04 06:15:09;;;;;;;6.38;3.40;;;;;;;;;;5036644;28;20551;-73
2022/01/04 06:17:42;;;;;;;5.55;3.13;;;;;;;;;;5011941;28;20042;-71
2022/01/04 06:20:14;;;;;;;6.55;3.13;;;;;;;;;;5026286;28;20045;-71
2022/01/04 06:22:41;;;;;;;5.60;3.50;;;;;;;;;;5035050;28;20045;-71
2022/01/04 06:25:13;;;;;;;6.55;3.38;;;;;;;;;;5018422;28;20136;-72
2022/01/04 06:27:47;;;;;;;6.32;3.10;;;;;;;;;;5034476;28;20378;-71
2022/01/04 06:30:18;;;;;;;7.15;3.60;;;;;;;;;;5013053;28;20049;-70
2022/01/04 06:32:45;;;;;;;5.80;3.30;;;;;;;;;;5018048;28;20052;-71
2022/01/04 06:35:13;;;;;;;9.35;2.90;;;;;;;;;;5018877;28;20059;-72
2022/01/04 06:37:44;;;;;;;5.88;3.17;;;;;;;;;;5017408;28;20382;-71
2022/01/04 06:40:12;;;;;;;5.57;2.53;;;;;;;;;;5032008;28;20090;-69
2022/01/04 06:42:38;;;;;;;5.78;2.75;;;;;;;;;;5038077;28;20049;-69
2022/01/04 06:45:05;;;;;;;3.83;2.63;;;;;;;;;;5016736;28;20041;-73
2022/01/04 06:47:31;;;;;;;6.22;2.75;;;;;;;;;;5015648;28;20119;-71
2022/01/04 06:49:57;;;;;;;5.57;3.30;;;;;;;;;;5029395;28;20199;-70
2022/01/04 06:52:23;;;;;;;8.77;2.90;;;;;;;;;;5032536;28;20272;-68
2022/01/04 06:54:49;;;;;;;4.95;3.00;;;;;;;;;;5035314;28;20044;-72
2022/01/04 06:57:16;;;;;;;5.55;2.90;;;;;;;;;;5019715;28;20773;-72
2022/01/04 06:59:42;;;;;;;5.97;3.22;;;;;;;;;;5014740;28;20307;-72
2022/01/04 07:02:08;;;;;;;4.70;2.80;;;;;;;;;;5032106;28;21470;-70
2022/01/04 07:04:34;;;;;;;5.97;3.42;;;;;;;;;;5012230;28;20060;-71
2022/01/04 07:07:00;;;;;;;12.68;3.92;;;;;;;;;;5013864;28;20057;-69
2022/01/04 07:09:26;;;;;;;4.22;2.67;;;;;;;;;;5010743;28;20060;-69
2022/01/04 07:11:54;;;;;;;9.18;3.20;;;;;;;;;;5008692;28;20045;-69
2022/01/04 07:14:20;;;;;;;6.25;3.42;;;;;;;;;;5046665;28;20336;-73
2022/01/04 07:16:47;;;;;;;7.38;3.30;;;;;;;;;;5046513;28;20403;-67
2022/01/04 07:19:15;;;;;;;5.63;3.28;;;;;;;;;;5046940;28;20049;-66
2022/01/04 07:21:41;;;;;;;9.65;7.00;;;;;;;;;;5030381;28;20060;-64
2022/01/04 07:24:07;;;;;;;8.73;3.60;;;;;;;;;;5047068;28;20106;-70
2022/01/04 07:26:34;;;;;;;8.00;2.80;;;;;;;;;;5047505;28;20102;-70
2022/01/04 07:29:01;;;;;;;8.85;3.00;;;;;;;;;;5042857;28;20144;-68
2022/01/04 07:31:27;;;;;;;12.30;3.22;;;;;;;;;;5044001;28;20049;-66
2022/01/04 07:33:53;;;;;;;5.82;2.95;;;;;;;;;;5045409;28;20040;-68
2022/01/04 07:36:20;;;;;;;4.78;2.70;;;;;;;;;;5041538;28;20045;-69
2022/01/04 07:38:46;;;;;;;7.60;2.78;;;;;;;;;;5049813;28;20136;-68
2022/01/04 07:41:12;;;;;;;6.18;2.83;;;;;;;;;;5039497;28;20049;-68
2022/01/04 07:43:38;;;;;;;6.13;2.40;;;;;;;;;;5048227;28;20048;-67
2022/01/04 07:46:05;;;;;;;5.32;2.70;;;;;;;;;;5049981;28;20147;-68
2022/01/04 07:48:31;;;;;;;4.40;2.63;;;;;;;;;;5055923;28;20494;-68
2022/01/04 07:50:58;;;;;;;5.75;2.47;;;;;;;;;;5043527;28;20053;-68
2022/01/04 07:53:25;;;;;;;4.18;2.80;;;;;;;;;;5048477;28;20041;-68
2022/01/04 07:55:52;;;;;;;10.63;2.60;;;;;;;;;;5048281;28;20065;-69
2022/01/04 07:58:18;;;;;;;5.53;2.95;;;;;;;;;;5031263;28;20499;-68
2022/01/04 08:00:45;;;;;;;4.75;2.70;;;;;;;;;;5047623;28;20094;-67
2022/01/04 08:03:12;;;;;;;6.18;2.50;;;;;;;;;;5006944;28;20050;-69
2022/01/04 08:05:38;;;;;;;5.15;2.53;;;;;;;;;;5010363;28;20085;-70
2022/01/04 08:08:05;;;;;;;3.65;2.50;;;;;;;;;;5009620;28;20046;-67
2022/01/04 08:10:31;;;;;;;3.17;2.20;;;;;;;;;;5005394;28;20077;-68
2022/01/04 08:12:58;;;;;;;6.53;2.38;;;;;;;;;;4999422;28;20447;-68
2022/01/04 08:15:25;;;;;;;6.30;2.30;;;;;;;;;;5007338;28;20135;-68
2022/01/04 08:17:52;;;;;;;5.05;2.30;;;;;;;;;;5006973;28;20057;-69
2022/01/04 08:20:19;;;;;;;6.15;2.60;;;;;;;;;;5007656;28;20053;-68
2022/01/04 08:22:45;;;;;;;3.80;1.92;;;;;;;;;;5002064;28;20052;-71
2022/01/04 08:25:11;;;;;;;3.55;2.25;;;;;;;;;;5007037;28;20046;-69
2022/01/04 08:27:39;;;;;;;6.05;2.55;;;;;;;;;;5006158;28;20117;-68
2022/01/04 08:30:09;;;;;;;3.50;2.17;;;;;;;;;;4994304;28;20058;-70
2022/01/04 08:32:35;;;;;;;7.40;2.50;;;;;;;;;;4998422;28;20133;-70
2022/01/04 08:35:02;;;;;;;4.13;2.42;;;;;;;;;;5003436;28;20099;-71
2022/01/04 08:37:29;;;;;;;13.00;2.28;;;;;;;;;;5002632;28;20155;-67
2022/01/04 08:39:56;;;;;;;5.57;2.60;;;;;;;;;;4997837;28;20053;-67
2022/01/04 08:42:24;;;;;;;4.72;2.50;;;;;;;;;;4984907;28;20059;-71
2022/01/04 08:44:50;;;;;;;3.88;2.25;;;;;;;;;;5003759;28;20038;-68
2022/01/04 08:47:16;;;;;;;4.85;2.38;;;;;;;;;;5001836;28;20054;-67
2022/01/04 08:49:43;;;;;;;4.10;2.40;;;;;;;;;;5001539;28;20125;-68
2022/01/04 08:52:10;;;;;;;6.00;2.38;;;;;;;;;;5000175;28;20423;-68
2022/01/04 08:54:36;;;;;;;7.55;2.40;;;;;;;;;;5005431;28;20301;-69
2022/01/04 08:57:03;;;;;;;5.25;2.60;;;;;;;;;;4999720;28;20049;-72
2022/01/04 08:59:32;;;;;;;5.22;2.80;;;;;;;;;;5007001;28;20077;-67
2022/01/04 09:01:58;;;;;;;3.50;2.70;;;;;;;;;;5029828;28;20144;-67
2022/01/04 09:04:25;;;;;;;11.00;3.10;;;;;;;;;;5028509;28;20049;-70
2022/01/04 09:06:52;;;;;;;9.57;3.70;;;;;;;;;;5027418;28;20041;-68
2022/01/04 09:09:18;;;;;;;9.02;3.72;;;;;;;;;;5008210;28;20053;-69
2022/01/04 09:11:45;;;;;;;11.90;4.30;;;;;;;;;;5027082;28;20049;-73
2022/01/04 09:14:27;;;;;;;7.15;3.38;;;;;;;;;;5024875;28;20123;-69
2022/01/04 09:19:40;;;;;;;10.57;3.70;;;;;;;;;;5029624;28;20037;-68
2022/01/04 09:22:06;;;;;;;6.80;3.90;;;;;;;;;;5026974;28;20050;-70
2022/01/04 09:24:33;;;;;;;5.95;3.30;;;;;;;;;;5010193;28;20084;-73
2022/01/04 09:27:04;;;;;;;6.35;3.22;;;;;;;;;;5023580;28;20057;-69
2022/01/04 09:29:31;;;;;;;10.00;3.38;;;;;;;;;;5021539;28;20061;-69
2022/01/04 09:31:57;;;;;;;5.78;2.95;;;;;;;;;;5023925;28;20076;-69
2022/01/04 09:34:24;;;;;;;7.15;3.28;;;;;;;;;;5023684;28;20470;-71
2022/01/04 09:36:50;;;;;;;12.15;3.70;;;;;;;;;;5020625;28;20056;-70
2022/01/04 09:39:24;;;;;;;9.02;3.58;;;;;;;;;;5023864;28;20041;-70
2022/01/04 09:41:55;;;;;;;11.48;3.90;;;;;;;;;;5021745;28;20034;-72
2022/01/04 09:44:25;;;;;;;12.25;4.60;;;;;;;;;;5024062;28;20132;-68
2022/01/04 09:46:51;;;;;;;9.48;4.53;;;;;;;;;;5025829;28;20210;-68
2022/01/04 09:49:18;;;;;;;7.30;3.67;;;;;;;;;;5024967;28;20132;-69
2022/01/04 09:51:45;;;;;;;7.45;4.10;;;;;;;;;;5028406;28;20053;-70
2022/01/04 09:54:12;;;;;;;5.50;3.38;;;;;;;;;;5025667;28;20072;-73
2022/01/04 09:56:39;;;;;;;8.30;3.45;;;;;;;;;;5014802;28;20045;-67
2022/01/04 09:59:05;;;;;;;8.10;3.30;;;;;;;;;;5030005;28;20073;-69
2022/01/04 10:01:38;;;;;;;7.80;3.30;;;;;;;;;;5035635;28;20521;-69
2022/01/04 10:04:06;;;;;;;10.27;3.83;;;;;;;;;;5047103;28;20529;-68
2022/01/04 10:06:34;;;;;;;7.75;2.75;;;;;;;;;;5047408;28;20444;-68
2022/01/04 10:09:08;;;;;;;9.20;2.97;;;;;;;;;;5009612;28;20093;-72
2022/01/04 10:11:39;;;;;;;5.43;3.00;;;;;;;;;;5049941;28;20052;-72
2022/01/04 10:14:24;;;;;;;8.52;3.50;;;;;;;;;;5048712;28;20056;-68
2022/01/04 10:16:59;;;;;;;6.65;3.10;;;;;;;;;;5031750;28;20049;-69
2022/01/04 10:19:36;;;;;;;7.63;2.97;;;;;;;;;;5045310;28;20387;-69
2022/01/04 10:22:24;;;;;;;5.63;3.22;;;;;;;;;;5046545;28;20148;-74
2022/01/04 10:25:12;;;;;;;8.32;3.45;;;;;;;;;;5008100;28;20095;-69
2022/01/04 10:27:44;;;;;;;16.73;4.95;;;;;;;;;;5030851;28;20114;-69
2022/01/04 10:30:16;;;;;;;8.02;3.85;;;;;;;;;;5042262;28;20042;-70
2022/01/04 10:32:48;;;;;;;10.98;3.13;;;;;;;;;;5030451;28;20056;-68
2022/01/04 10:35:26;;;;;;;11.90;3.35;;;;;;;;;;5048518;28;20131;-73
2022/01/04 10:37:55;;;;;;;12.95;3.92;;;;;;;;;;5045548;28;20102;-68
2022/01/04 10:40:22;;;;;;;12.93;3.63;;;;;;;;;;5028636;28;20380;-71
2022/01/04 10:42:48;;;;;;;9.00;3.67;;;;;;;;;;5027089;28;20105;-71
2022/01/04 10:45:25;;;;;;;17.95;4.15;;;;;;;;;;5048017;28;20072;-69
2022/01/04 10:47:52;;;;;;;16.27;4.30;;;;;;;;;;5044524;28;20493;-70
2022/01/04 10:50:32;;;;;;;10.23;4.43;;;;;;;;;;5047043;28;20055;-67
2022/01/04 10:52:59;;;;;;;12.13;4.13;;;;;;;;;;5048128;28;20048;-69
2022/01/04 10:55:31;;;;;;;13.77;4.68;;;;;;;;;;5014262;28;20245;-68
2022/01/04 10:57:57;;;;;;;14.07;4.45;;;;;;;;;;5030460;28;20391;-69
2022/01/04 11:00:24;;;;;;;19.02;4.70;;;;;;;;;;5047089;28;20522;-69
2022/01/04 11:02:50;;;;;;;9.25;2.83;;;;;;;;;;5021896;28;20057;-70
2022/01/04 11:05:20;;;;;;;4.45;2.03;;;;;;;;;;5031045;28;20060;-70
2022/01/04 11:07:57;;;;;;;3.47;1.90;;;;;;;;;;5026615;28;20087;-69
2022/01/04 11:10:24;;;;;;;5.53;1.80;;;;;;;;;;5046714;28;20084;-70
2022/01/04 11:12:52;;;;;;;3.60;1.70;;;;;;;;;;5050219;28;20165;-70
2022/01/04 11:15:19;;;;;;;5.18;1.80;;;;;;;;;;5046028;28;20522;-73
2022/01/04 11:17:46;;;;;;;5.20;1.90;;;;;;;;;;5029846;28;20495;-70
2022/01/04 11:20:13;;;;;;;5.85;1.98;;;;;;;;;;5041349;28;20387;-69
2022/01/04 11:22:40;;;;;;;12.90;1.70;;;;;;;;;;5028076;28;20074;-71
2022/01/04 11:25:07;;;;;;;5.65;1.75;;;;;;;;;;5047659;28;20395;-71
2022/01/04 11:27:39;;;;;;;8.80;1.90;;;;;;;;;;5043816;28;20049;-70
2022/01/04 11:30:35;;;;;;;6.05;1.50;;;;;;;;;;5043092;28;20052;-71
2022/01/04 11:33:16;;;;;;;7.25;1.90;;;;;;;;;;5020986;28;20048;-69
2022/01/04 11:35:45;;;;;;;4.78;1.80;;;;;;;;;;5044025;28;20037;-68
2022/01/04 11:38:11;;;;;;;3.55;1.60;;;;;;;;;;5027979;28;20061;-72
2022/01/04 11:40:42;;;;;;;6.65;2.10;;;;;;;;;;5040867;28;20056;-69
2022/01/04 11:43:29;;;;;;;6.00;2.00;;;;;;;;;;5029756;28;20494;-69
2022/01/04 11:45:55;;;;;;;5.47;2.00;;;;;;;;;;5038998;28;20526;-68
2022/01/04 11:48:42;;;;;;;8.05;2.42;;;;;;;;;;5022403;28;20095;-71
2022/01/04 11:51:28;;;;;;;6.35;1.90;;;;;;;;;;5019340;28;20418;-71
2022/01/04 11:54:27;;;;;;;8.82;2.00;;;;;;;;;;5036537;28;20052;-68
2022/01/04 11:56:59;;;;;;;6.35;2.10;;;;;;;;;;5007930;28;20399;-69
2022/01/04 11:59:56;;;;;;;5.05;2.30;;;;;;;;;;5040500;28;20102;-70
2022/01/04 12:02:39;;;;;;;7.78;2.28;;;;;;;;;;5041098;28;20080;-73
2022/01/04 12:05:21;;;;;;;4.78;1.80;;;;;;;;;;5023179;28;20040;-70
2022/01/04 12:07:50;;;;;;;6.82;1.95;;;;;;;;;;5046087;28;20063;-71
2022/01/04 12:10:22;;;;;;;4.10;1.55;;;;;;;;;;5024787;28;20056;-71
2022/01/04 12:13:04;;;;;;;6.90;1.77;;;;;;;;;;5025361;28;20048;-76
2022/01/04 12:15:33;;;;;;;3.88;1.95;;;;;;;;;;5023172;28;20422;-71
2022/01/04 12:18:00;;;;;;;9.30;1.70;;;;;;;;;;5044117;28;20048;-69
2022/01/04 12:20:42;;;;;;;3.17;1.58;;;;;;;;;;5045031;28;20045;-72
2022/01/04 12:23:26;;;;;;;4.85;1.75;;;;;;;;;;5023150;28;20037;-74
2022/01/04 12:26:06;;;;;;;5.35;1.60;;;;;;;;;;5024721;28;20532;-70
2022/01/04 12:28:43;;;;;;;6.20;1.90;;;;;;;;;;5030498;28;20056;-72
2022/01/04 12:31:19;;;;;;;4.65;1.60;;;;;;;;;;5043533;28;20048;-68
2022/01/04 12:33:51;;;;;;;4.10;1.88;;;;;;;;;;5038148;28;20067;-71
2022/01/04 12:36:33;;;;;;;9.15;2.55;;;;;;;;;;5044939;28;20053;-72
2022/01/04 12:39:04;;;;;;;5.95;2.30;;;;;;;;;;5037743;28;20045;-73
2022/01/04 12:41:31;;;;;;;6.93;1.90;;;;;;;;;;5030101;28;20150;-71
2022/01/04 12:43:58;;;;;;;8.25;2.42;;;;;;;;;;5044441;28;20037;-70
2022/01/04 12:46:26;;;;;;;10.68;2.08;;;;;;;;;;5044477;28;20092;-70
2022/01/04 12:49:01;;;;;;;8.10;2.10;;;;;;;;;;5013188;28;20523;-71
2022/01/04 12:51:36;;;;;;;3.67;1.70;;;;;;;;;;5034313;28;20139;-73
2022/01/04 12:54:11;;;;;;;4.65;1.77;;;;;;;;;;5026322;28;20079;-71
2022/01/04 12:56:46;;;;;;;4.90;1.73;;;;;;;;;;5029137;28;20133;-71
2022/01/04 12:59:37;;;;;;;5.03;1.77;;;;;;;;;;5027087;28;20050;-71
2022/01/04 13:02:17;;;;;;;3.50;1.77;;;;;;;;;;5046524;28;20199;-70
2022/01/04 13:04:47;;;;;;;3.92;2.10;;;;;;;;;;5024068;28;20073;-68
2022/01/04 13:07:40;;;;;;;3.88;1.90;;;;;;;;;;5031610;28;20151;-71
2022/01/04 13:10:10;;;;;;;5.38;1.90;;;;;;;;;;5047379;28;20040;-70
2022/01/04 13:12:42;;;;;;;6.50;1.70;;;;;;;;;;5030638;28;20055;-71
2022/01/04 13:15:11;;;;;;;8.23;2.10;;;;;;;;;;5031623;28;20116;-71
2022/01/04 13:17:45;;;;;;;6.68;1.92;;;;;;;;;;5028086;28;20049;-71
2022/01/04 13:20:12;;;;;;;;;;;;;;;;;;5028468;28;20061;-69
2022/01/04 13:22:38;;;;;;;5.13;1.73;;;;;;;;;;5030902;28;19924;-72
2022/01/04 13:25:07;;;;;;;4.07;1.70;;;;;;;;;;5048813;28;20079;-69
2022/01/04 13:27:41;;;;;;;5.57;1.90;;;;;;;;;;5050522;28;20052;-71
2022/01/04 13:30:08;;;;;;;;;;;;;;;;;;5048258;28;20063;-70
2022/01/04 13:32:54;;;;;;;6.32;2.00;;;;;;;;;;5050806;28;19924;-69
2022/01/04 13:35:48;;;;;;;7.45;2.20;;;;;;;;;;5048481;28;20057;-69
2022/01/04 13:38:21;;;;;;;5.97;1.63;;;;;;;;;;5050480;28;20045;-71
2022/01/04 13:40:50;;;;;;;5.85;2.28;;;;;;;;;;5046624;28;20050;-73
2022/01/04 13:43:33;;;;;;;4.93;1.90;;;;;;;;;;5036351;28;20041;-75
2022/01/04 13:46:05;;;;;;;5.88;2.00;;;;;;;;;;5049994;28;20096;-75
2022/01/04 13:48:37;;;;;;;7.20;2.20;;;;;;;;;;5037586;28;20507;-72
2022/01/04 13:51:13;;;;;;;5.60;2.10;;;;;;;;;;5050998;28;20072;-71
2022/01/04 13:53:45;;;;;;;5.60;2.10;;;;;;;;;;5050979;28;20041;-70
2022/01/04 13:56:17;;;;;;;4.93;2.05;;;;;;;;;;5032100;28;20494;-72
2022/01/04 13:58:46;;;;;;;13.32;2.10;;;;;;;;;;5032015;28;20055;-70
2022/01/04 14:01:27;;;;;;;8.20;2.00;;;;;;;;;;5029932;28;20053;-71
2022/01/04 14:04:09;;;;;;;3.88;1.98;;;;;;;;;;5028443;28;20045;-72
2022/01/04 14:06:43;;;;;;;7.18;1.80;;;;;;;;;;5045535;28;20513;-71
2022/01/04 14:09:15;;;;;;;6.45;2.03;;;;;;;;;;5049272;28;20493;-72
2022/01/04 14:11:46;;;;;;;4.18;1.98;;;;;;;;;;5049185;28;20647;-73
2022/01/04 14:14:12;;;;;;;2.33;1.67;;;;;;;;;;5049452;28;20157;-71
2022/01/04 14:16:41;;;;;;;6.07;2.00;;;;;;;;;;5050030;28;20045;-71
2022/01/04 14:19:10;;;;;;;3.97;1.92;;;;;;;;;;5047059;28;20438;-72
2022/01/04 14:21:41;;;;;;;3.65;1.92;;;;;;;;;;5024106;28;20586;-74
2022/01/04 14:24:38;;;;;;;3.33;1.90;;;;;;;;;;5049736;28;20087;-73
2022/01/04 14:27:09;;;;;;;6.88;2.00;;;;;;;;;;5048019;28;20048;-73
2022/01/04 14:29:47;;;;;;;4.80;2.10;;;;;;;;;;5050763;28;20048;-71
2022/01/04 14:32:13;;;;;;;4.32;1.90;;;;;;;;;;5047248;28;20056;-70
2022/01/04 14:34:40;;;;;;;7.68;2.40;;;;;;;;;;5034071;28;20347;-70
2022/01/04 14:37:07;;;;;;;5.68;2.22;;;;;;;;;;5045793;28;20379;-69
2022/01/04 14:39:33;;;;;;;5.30;2.20;;;;;;;;;;5048312;28;20165;-72
2022/01/04 14:42:01;;;;;;;8.77;2.20;;;;;;;;;;5048897;28;20080;-71
2022/01/04 14:44:28;;;;;;;9.35;2.15;;;;;;;;;;5030632;28;20448;-71
2022/01/04 14:46:56;;;;;;;8.23;2.58;;;;;;;;;;5046786;28;20083;-71
2022/01/04 14:49:23;;;;;;;6.25;2.38;;;;;;;;;;5025420;28;20059;-73
2022/01/04 14:51:49;;;;;;;8.30;2.40;;;;;;;;;;5024646;28;20411;-71
2022/01/04 14:54:15;;;;;;;5.13;2.20;;;;;;;;;;5028436;28;20529;-72
2022/01/04 14:56:42;;;;;;;4.88;2.10;;;;;;;;;;5030297;28;20052;-71
2022/01/04 14:59:10;;;;;;;8.30;2.65;;;;;;;;;;5048144;28;20449;-71
2022/01/04 15:01:38;;;;;;;10.02;2.30;;;;;;;;;;5030639;28;20496;-71
2022/01/04 15:04:06;;;;;;;4.22;2.58;;;;;;;;;;5048369;28;20049;-70